createdAt,value
2022-12-15T00:00:40.081Z,0.73
2022-12-15T00:03:26.418Z,0.40
2022-12-15T00:06:11.808Z,1.00
2022-12-15T00:08:56.964Z,0.50
2022-12-15T00:11:42.731Z,0.83
2022-12-15T00:14:28.229Z,1.03
2022-12-15T00:17:14.059Z,0.90
2022-12-15T00:19:59.490Z,0.60
2022-12-15T00:22:45.019Z,0.63
2022-12-15T00:25:30.114Z,0.70
2022-12-15T00:28:16.248Z,0.70
2022-12-15T00:31:02.700Z,0.80
2022-12-15T00:33:48.699Z,0.50
2022-12-15T00:36:34.262Z,0.57
2022-12-15T00:39:21.165Z,0.73
2022-12-15T00:42:08.067Z,0.80
2022-12-15T00:44:55.562Z,0.60
2022-12-15T00:47:42.735Z,0.60
2022-12-15T00:50:28.221Z,0.40
2022-12-15T00:53:13.811Z,0.40
2022-12-15T00:55:59.429Z,0.60
2022-12-15T00:58:45.246Z,0.47
2022-12-15T01:01:31.096Z,0.60
2022-12-15T01:04:16.644Z,0.60
2022-12-15T01:07:02.333Z,0.63
2022-12-15T01:09:47.752Z,0.60
2022-12-15T01:12:33.514Z,0.67
2022-12-15T01:15:19.330Z,0.50
2022-12-15T01:18:04.546Z,0.70
2022-12-15T01:20:51.491Z,0.70
2022-12-15T01:23:38.507Z,0.60
2022-12-15T01:26:26.780Z,0.70
2022-12-15T01:29:13.863Z,0.77
2022-12-15T01:32:00.861Z,0.73
2022-12-15T01:34:47.907Z,0.50
2022-12-15T01:37:35.108Z,0.47
2022-12-15T01:40:21.129Z,0.70
2022-12-15T01:43:08.241Z,0.43
2022-12-15T01:46:09.750Z,0.37
2022-12-15T01:49:08.743Z,0.70
2022-12-15T01:51:59.750Z,0.60
2022-12-15T01:54:54.924Z,0.77
2022-12-15T01:57:47.051Z,0.47
2022-12-15T02:00:35.094Z,0.40
2022-12-15T02:03:22.749Z,0.53
2022-12-15T02:06:09.862Z,0.73
2022-12-15T02:08:57.800Z,0.47
2022-12-15T02:12:09.693Z,0.43
2022-12-15T02:15:31.307Z,0.80
2022-12-15T02:18:42.308Z,0.60
2022-12-15T02:21:35.402Z,0.40
2022-12-15T02:24:33.836Z,0.87
2022-12-15T02:27:43.106Z,0.50
2022-12-15T02:30:35.673Z,0.70
2022-12-15T02:33:35.497Z,0.60
2022-12-15T02:36:43.756Z,0.57
2022-12-15T02:39:34.414Z,0.80
2022-12-15T02:42:21.274Z,0.70
2022-12-15T02:45:20.397Z,0.70
2022-12-15T02:48:30.804Z,0.53
2022-12-15T02:51:24.381Z,0.60
2022-12-15T02:54:43.329Z,0.50
2022-12-15T02:57:40.182Z,0.70
2022-12-15T03:00:30.332Z,0.73
2022-12-15T03:03:17.399Z,0.60
2022-12-15T03:06:04.310Z,0.70
2022-12-15T03:08:51.546Z,0.43
2022-12-15T03:11:38.760Z,0.70
2022-12-15T03:14:25.933Z,0.70
2022-12-15T03:17:14.011Z,0.70
2022-12-15T03:20:01.068Z,0.97
2022-12-15T03:22:47.894Z,0.83
2022-12-15T03:25:35.110Z,0.70
2022-12-15T03:28:22.461Z,0.80
2022-12-15T03:31:10.007Z,0.90
2022-12-15T03:33:57.043Z,0.50
2022-12-15T03:36:43.915Z,0.90
2022-12-15T03:39:30.856Z,0.90
2022-12-15T03:42:17.886Z,0.77
2022-12-15T03:45:04.935Z,0.70
2022-12-15T03:47:51.931Z,0.90
2022-12-15T03:50:41.803Z,0.50
2022-12-15T03:53:29.478Z,0.60
2022-12-15T03:56:16.748Z,0.70
2022-12-15T03:59:03.850Z,0.90
2022-12-15T04:01:53.452Z,1.30
2022-12-15T04:04:40.477Z,0.63
2022-12-15T04:07:27.541Z,0.80
2022-12-15T04:10:14.562Z,0.90
2022-12-15T04:13:01.545Z,0.70
2022-12-15T04:15:49.038Z,0.73
2022-12-15T04:18:35.952Z,0.70
2022-12-15T04:21:23.357Z,0.50
2022-12-15T04:24:08.754Z,0.50
2022-12-15T04:26:54.323Z,0.40
2022-12-15T04:29:39.897Z,0.53
2022-12-15T04:32:25.415Z,0.90
2022-12-15T04:35:11.181Z,0.63
2022-12-15T04:37:56.670Z,0.70
2022-12-15T04:40:42.266Z,0.70
2022-12-15T04:43:27.886Z,0.53
2022-12-15T04:46:14.049Z,0.53
2022-12-15T04:48:59.485Z,0.60
2022-12-15T04:51:45.277Z,0.70
2022-12-15T04:54:30.718Z,0.50
2022-12-15T04:57:16.025Z,0.60
2022-12-15T05:00:01.550Z,0.50
2022-12-15T05:02:47.629Z,0.47
2022-12-15T05:05:35.326Z,0.67
2022-12-15T05:08:21.074Z,0.50
2022-12-15T05:11:06.610Z,0.50
2022-12-15T05:13:52.337Z,0.63
2022-12-15T05:16:37.979Z,0.50
2022-12-15T05:19:23.758Z,0.67
2022-12-15T05:22:09.530Z,0.70
2022-12-15T05:24:55.070Z,0.60
2022-12-15T05:27:40.823Z,0.60
2022-12-15T05:30:26.790Z,0.80
2022-12-15T05:32:53.705Z,0.60
2022-12-15T05:35:20.732Z,0.80
2022-12-15T05:37:47.668Z,0.80
2022-12-15T05:40:34.662Z,0.57
2022-12-15T05:43:26.324Z,0.53
2022-12-15T05:45:53.904Z,0.80
2022-12-15T05:48:40.997Z,0.70
2022-12-15T05:51:29.784Z,0.63
2022-12-15T05:54:16.785Z,0.60
2022-12-15T05:57:04.425Z,0.70
2022-12-15T05:59:52.804Z,0.90
2022-12-15T06:02:39.796Z,0.60
2022-12-15T06:05:27.571Z,0.63
2022-12-15T06:08:14.702Z,0.60
2022-12-15T06:11:01.682Z,0.53
2022-12-15T06:13:53.284Z,1.17
2022-12-15T06:16:50.652Z,0.77
2022-12-15T06:19:27.717Z,0.43
2022-12-15T06:22:14.914Z,0.87
2022-12-15T06:28:27.991Z,0.63
2022-12-15T06:31:16.352Z,0.90
2022-12-15T06:34:06.546Z,0.93
2022-12-15T06:36:53.468Z,0.90
2022-12-15T06:39:40.530Z,0.70
2022-12-15T06:42:27.369Z,0.90
2022-12-15T06:45:14.556Z,0.70
2022-12-15T06:48:01.913Z,1.10
2022-12-15T06:50:50.243Z,0.70
2022-12-15T06:53:39.612Z,0.43
2022-12-15T06:56:34.872Z,0.60
2022-12-15T06:59:23.708Z,0.60
2022-12-15T07:02:10.982Z,0.50
2022-12-15T07:04:57.933Z,0.60
2022-12-15T07:07:45.841Z,0.60
2022-12-15T07:10:32.877Z,0.67
2022-12-15T07:13:20.050Z,0.57
2022-12-15T07:16:07.045Z,0.77
2022-12-15T07:18:54.545Z,0.70
2022-12-15T07:21:41.697Z,0.70
2022-12-15T07:24:31.188Z,0.97
2022-12-15T07:27:18.197Z,0.80
2022-12-15T07:30:05.109Z,0.73
2022-12-15T07:32:52.012Z,0.63
2022-12-15T07:35:19.331Z,0.80
2022-12-15T07:37:46.315Z,0.70
2022-12-15T07:40:13.438Z,0.87
2022-12-15T07:42:40.517Z,1.00
2022-12-15T07:45:07.974Z,0.60
2022-12-15T07:47:55.499Z,0.87
2022-12-15T07:50:42.574Z,1.20
2022-12-15T07:53:09.614Z,0.97
2022-12-15T07:56:06.769Z,1.10
2022-12-15T07:58:54.603Z,1.50
2022-12-15T08:01:41.635Z,1.80
2022-12-15T08:04:28.831Z,1.77
2022-12-15T08:07:16.270Z,1.60
2022-12-15T08:10:03.272Z,1.77
2022-12-15T08:12:50.299Z,1.30
2022-12-15T08:15:37.287Z,1.50
2022-12-15T08:18:25.730Z,0.90
2022-12-15T08:21:12.641Z,1.03
2022-12-15T08:23:59.557Z,1.60
2022-12-15T08:26:50.144Z,1.47
2022-12-15T08:29:53.082Z,1.37
2022-12-15T08:32:40.280Z,1.30
2022-12-15T08:35:55.133Z,1.10
2022-12-15T08:38:34.290Z,1.50
2022-12-15T08:41:32.928Z,2.10
2022-12-15T08:44:21.635Z,1.73
2022-12-15T08:47:09.134Z,2.17
2022-12-15T08:49:56.188Z,1.97
2022-12-15T08:53:00.687Z,1.77
2022-12-15T08:55:50.342Z,1.77
2022-12-15T08:58:37.724Z,1.70
2022-12-15T09:01:27.371Z,1.30
2022-12-15T09:04:16.454Z,1.43
2022-12-15T09:07:03.712Z,1.30
2022-12-15T09:09:50.576Z,1.30
2022-12-15T09:12:37.680Z,1.03
2022-12-15T09:15:45.437Z,0.93
2022-12-15T09:18:32.313Z,1.00
2022-12-15T09:21:24.143Z,0.87
2022-12-15T09:24:14.728Z,0.50
2022-12-15T09:27:04.766Z,1.17
2022-12-15T09:29:52.053Z,0.80
2022-12-15T09:32:38.971Z,1.03
2022-12-15T09:35:26.254Z,1.23
2022-12-15T09:38:13.150Z,1.03
2022-12-15T09:41:00.018Z,1.03
2022-12-15T09:43:48.329Z,1.00
2022-12-15T09:46:56.214Z,0.87
2022-12-15T09:50:07.627Z,1.07
2022-12-15T09:53:23.281Z,0.70
2022-12-15T09:56:24.731Z,1.10
2022-12-15T09:59:39.570Z,0.93
2022-12-15T10:03:08.427Z,0.93
2022-12-15T10:06:25.966Z,1.10
2022-12-15T10:09:50.296Z,0.60
2022-12-15T10:12:55.279Z,0.93
2022-12-15T10:16:01.300Z,1.23
2022-12-15T10:19:02.168Z,1.13
2022-12-15T10:21:51.371Z,1.10
2022-12-15T10:25:09.126Z,0.70
2022-12-15T10:28:18.712Z,0.70
2022-12-15T10:31:17.565Z,1.10
2022-12-15T10:34:11.801Z,0.80
2022-12-15T10:37:09.942Z,1.20
2022-12-15T10:39:59.335Z,0.90
2022-12-15T10:42:47.176Z,0.63
2022-12-15T10:46:08.021Z,1.10
2022-12-15T10:48:56.371Z,0.90
2022-12-15T10:52:02.704Z,0.87
2022-12-15T10:55:03.646Z,0.90
2022-12-15T10:57:54.408Z,0.97
2022-12-15T11:00:50.757Z,1.30
2022-12-15T11:03:58.468Z,1.10
2022-12-15T11:06:48.552Z,0.43
2022-12-15T11:09:48.550Z,0.67
2022-12-15T11:12:38.895Z,0.83
2022-12-15T11:15:51.844Z,1.00
2022-12-15T11:18:41.647Z,0.73
2022-12-15T11:21:40.485Z,1.03
2022-12-15T11:24:34.821Z,1.03
2022-12-15T11:27:25.839Z,0.60
2022-12-15T11:30:33.517Z,0.60
2022-12-15T11:33:21.632Z,1.00
2022-12-15T11:36:36.423Z,0.80
2022-12-15T11:39:48.663Z,0.57
2022-12-15T11:42:41.369Z,0.93
2022-12-15T11:45:50.269Z,0.90
2022-12-15T11:48:59.939Z,0.83
2022-12-15T11:52:11.283Z,0.90
2022-12-15T11:55:27.669Z,1.10
2022-12-15T11:58:44.556Z,1.17
2022-12-15T12:01:52.606Z,1.00
2022-12-15T12:04:47.476Z,0.93
2022-12-15T12:08:11.931Z,1.13
2022-12-15T12:11:21.292Z,1.00
2022-12-15T12:14:32.644Z,0.67
2022-12-15T12:17:28.373Z,0.93
2022-12-15T12:20:19.846Z,1.20
2022-12-15T12:23:50.258Z,1.10
2022-12-15T12:26:55.323Z,0.80
2022-12-15T12:29:58.005Z,1.10
2022-12-15T12:33:03.571Z,1.10
2022-12-15T12:36:01.471Z,1.00
2022-12-15T12:38:56.975Z,1.47
2022-12-15T12:41:43.708Z,0.97
2022-12-15T12:44:53.446Z,1.47
2022-12-15T12:47:46.023Z,2.10
2022-12-15T12:50:50.546Z,1.90
2022-12-15T12:54:03.820Z,1.67
2022-12-15T12:57:03.944Z,1.57
2022-12-15T12:59:50.819Z,2.10
2022-12-15T13:02:40.764Z,1.87
2022-12-15T13:05:45.247Z,1.60
2022-12-15T13:08:32.279Z,1.87
2022-12-15T13:11:41.998Z,1.93
2022-12-15T13:14:21.091Z,2.20
2022-12-15T13:17:24.787Z,1.47
2022-12-15T13:20:19.205Z,1.80
2022-12-15T13:23:06.335Z,1.60
2022-12-15T13:25:40.296Z,1.40
2022-12-15T13:28:29.755Z,1.63
2022-12-15T13:31:41.192Z,1.90
2022-12-15T13:34:16.809Z,1.47
2022-12-15T13:36:52.583Z,1.83
2022-12-15T13:39:50.408Z,1.47
2022-12-15T13:45:57.783Z,2.23
2022-12-15T13:48:56.836Z,2.27
2022-12-15T13:52:03.190Z,1.77
2022-12-15T13:55:02.372Z,1.70
2022-12-15T13:57:54.403Z,2.10
2022-12-15T14:00:41.727Z,1.97
2022-12-15T14:03:33.287Z,1.77
2022-12-15T14:06:21.295Z,1.97
2022-12-15T14:09:08.383Z,2.10
2022-12-15T14:11:55.908Z,1.90
2022-12-15T14:14:26.805Z,1.33
2022-12-15T14:16:58.387Z,1.73
2022-12-15T14:19:26.049Z,1.47
2022-12-15T14:22:21.748Z,1.50
2022-12-15T14:25:57.428Z,1.70
2022-12-15T14:28:50.589Z,1.43
2022-12-15T14:31:42.059Z,1.47
2022-12-15T14:34:43.555Z,1.60
2022-12-15T14:37:39.049Z,1.40
2022-12-15T14:40:29.100Z,1.57
2022-12-15T14:43:16.770Z,1.83
2022-12-15T14:45:44.140Z,2.17
2022-12-15T14:51:32.562Z,2.10
2022-12-15T14:54:19.440Z,1.80
2022-12-15T14:57:17.047Z,2.43
2022-12-15T14:59:54.087Z,1.63
2022-12-15T15:02:48.587Z,2.63
2022-12-15T15:03:05.640Z,1.57
2022-12-15T15:05:27.861Z,2.17
2022-12-15T15:07:56.699Z,1.90
2022-12-15T15:10:29.509Z,1.70
2022-12-15T15:12:56.523Z,1.67
2022-12-15T15:15:46.567Z,1.60
2022-12-15T15:18:43.858Z,1.70
2022-12-15T15:21:38.333Z,2.47
2022-12-15T15:24:30.882Z,2.23
2022-12-15T15:27:58.134Z,2.43
2022-12-15T15:30:45.216Z,1.97
2022-12-15T15:33:33.060Z,2.00
2022-12-15T15:36:22.091Z,1.53
2022-12-15T15:39:09.054Z,1.67
2022-12-15T15:41:55.899Z,1.47
2022-12-15T15:44:42.782Z,1.67
2022-12-15T15:47:43.701Z,1.50
2022-12-15T15:50:37.687Z,1.60
2022-12-15T15:53:24.646Z,1.43
2022-12-15T15:55:54.886Z,1.57
2022-12-15T15:58:41.785Z,1.37
2022-12-15T16:01:28.941Z,1.23
2022-12-15T16:04:15.840Z,1.93
2022-12-15T16:07:03.075Z,1.43
2022-12-15T16:09:49.997Z,1.50
2022-12-15T16:13:01.858Z,1.53
2022-12-15T16:15:53.950Z,1.17
2022-12-15T16:18:41.090Z,1.37
2022-12-15T16:21:32.844Z,1.37
2022-12-15T16:24:30.321Z,1.80
2022-12-15T16:27:17.222Z,2.10
2022-12-15T16:30:04.330Z,1.40
2022-12-15T16:32:51.132Z,1.73
2022-12-15T16:35:38.571Z,1.67
2022-12-15T16:38:55.047Z,1.27
2022-12-15T16:41:42.091Z,1.53
2022-12-15T16:44:31.428Z,1.37
2022-12-15T16:47:19.373Z,1.90
2022-12-15T16:50:06.184Z,2.63
2022-12-15T16:52:53.276Z,2.50
2022-12-15T16:55:46.679Z,1.53
2022-12-15T16:58:36.370Z,1.97
2022-12-15T17:01:23.832Z,1.93
2022-12-15T17:04:11.396Z,2.17
2022-12-15T17:06:58.448Z,2.53
2022-12-15T17:09:45.986Z,3.03
2022-12-15T17:12:37.574Z,2.07
2022-12-15T17:15:36.429Z,2.30
2022-12-15T17:18:24.429Z,1.87
2022-12-15T17:21:16.225Z,1.30
2022-12-15T17:24:10.079Z,1.30
2022-12-15T17:26:57.454Z,1.07
2022-12-15T17:29:45.146Z,1.17
2022-12-15T17:32:33.112Z,1.17
2022-12-15T17:35:20.429Z,1.20
2022-12-15T17:38:07.738Z,1.00
2022-12-15T17:40:55.096Z,1.10
2022-12-15T17:44:04.330Z,0.67
2022-12-15T17:46:55.191Z,1.23
2022-12-15T17:49:42.450Z,1.00
2022-12-15T17:52:42.703Z,1.33
2022-12-15T17:55:42.348Z,1.40
2022-12-15T17:58:41.202Z,1.60
2022-12-15T18:01:33.261Z,2.07
2022-12-15T18:04:20.205Z,2.53
2022-12-15T18:07:07.327Z,1.83
2022-12-15T18:09:54.207Z,2.47
2022-12-15T18:12:44.778Z,1.70
2022-12-15T18:15:41.003Z,1.70
2022-12-15T18:18:28.005Z,1.63
2022-12-15T18:21:19.180Z,2.00
2022-12-15T18:24:06.246Z,1.80
2022-12-15T18:26:53.164Z,1.70
2022-12-15T18:29:40.208Z,1.70
2022-12-15T18:32:29.588Z,1.70
2022-12-15T18:35:20.170Z,1.10
2022-12-15T18:38:06.970Z,1.20
2022-12-15T18:40:53.975Z,1.40
2022-12-15T18:43:38.847Z,1.70
2022-12-15T18:46:05.986Z,1.50
2022-12-15T18:48:37.675Z,1.33
2022-12-15T18:51:17.092Z,1.53
2022-12-15T18:54:04.556Z,1.83
2022-12-15T18:56:51.688Z,1.13
2022-12-15T18:59:38.855Z,1.60
2022-12-15T19:02:25.969Z,1.27
2022-12-15T19:05:13.009Z,1.80
2022-12-15T19:08:00.044Z,1.30
2022-12-15T19:10:49.807Z,1.57
2022-12-15T19:13:38.728Z,1.70
2022-12-15T19:16:30.356Z,1.80
2022-12-15T19:19:17.504Z,1.53
2022-12-15T19:21:44.515Z,0.90
2022-12-15T19:24:36.908Z,1.37
2022-12-15T19:27:30.190Z,1.77
2022-12-15T19:30:17.331Z,1.63
2022-12-15T19:33:04.265Z,1.37
2022-12-15T19:35:51.405Z,1.70
2022-12-15T19:38:43.095Z,1.70
2022-12-15T19:41:35.624Z,1.30
2022-12-15T19:44:22.694Z,1.40
2022-12-15T19:47:09.772Z,1.60
2022-12-15T19:49:56.754Z,1.70
2022-12-15T19:52:43.840Z,1.57
2022-12-15T19:55:38.418Z,1.37
2022-12-15T19:58:48.332Z,1.87
2022-12-15T20:01:36.985Z,1.50
2022-12-15T20:04:24.512Z,1.43
2022-12-15T20:07:11.516Z,1.27
2022-12-15T20:09:58.408Z,1.00
2022-12-15T20:12:45.254Z,1.83
2022-12-15T20:15:37.401Z,1.30
2022-12-15T20:18:24.472Z,1.60
2022-12-15T20:21:11.755Z,1.67
2022-12-15T20:24:09.408Z,1.70
2022-12-15T20:26:57.915Z,2.10
2022-12-15T20:29:50.866Z,2.83
2022-12-15T20:32:40.395Z,1.83
2022-12-15T20:35:27.434Z,2.10
2022-12-15T20:38:14.619Z,2.13
2022-12-15T20:41:01.958Z,3.03
2022-12-15T20:43:51.284Z,3.57
2022-12-15T20:46:42.199Z,4.27
2022-12-15T20:49:40.929Z,4.23
2022-12-15T20:52:38.513Z,4.07
2022-12-15T20:55:26.771Z,5.67
2022-12-15T20:58:13.851Z,4.07
2022-12-15T21:01:01.432Z,4.30
2022-12-15T21:03:52.859Z,4.23
2022-12-15T21:06:40.578Z,4.57
2022-12-15T21:09:34.191Z,4.53
2022-12-15T21:12:21.578Z,4.27
2022-12-15T21:15:09.695Z,5.00
2022-12-15T21:18:20.031Z,4.77
2022-12-15T21:21:07.790Z,4.13
2022-12-15T21:23:54.961Z,4.90
2022-12-15T21:26:43.822Z,4.60
2022-12-15T21:29:35.979Z,4.27
2022-12-15T21:32:23.022Z,3.83
2022-12-15T21:35:09.884Z,3.17
2022-12-15T21:37:57.060Z,3.63
2022-12-15T21:40:46.123Z,4.03
2022-12-15T21:43:33.305Z,4.83
2022-12-15T21:46:26.366Z,4.20
2022-12-15T21:49:34.307Z,4.23
2022-12-15T21:52:21.218Z,4.27
2022-12-15T21:55:08.267Z,3.23
2022-12-15T21:57:55.043Z,3.60
2022-12-15T22:00:45.759Z,3.67
2022-12-15T22:03:33.150Z,4.17
2022-12-15T22:06:20.232Z,4.13
2022-12-15T22:09:07.957Z,4.70
2022-12-15T22:11:54.934Z,4.07
2022-12-15T22:14:49.374Z,2.53
2022-12-15T22:17:38.444Z,3.03
2022-12-15T22:20:43.887Z,3.13
2022-12-15T22:23:31.002Z,3.13
2022-12-15T22:26:17.819Z,3.20
2022-12-15T22:29:05.118Z,3.10
2022-12-15T22:31:52.055Z,3.13
2022-12-15T22:34:45.029Z,3.60
2022-12-15T22:37:32.313Z,3.47
2022-12-15T22:40:19.526Z,4.00
2022-12-15T22:43:16.769Z,3.60
2022-12-15T22:46:03.928Z,3.03
2022-12-15T22:48:54.716Z,3.00
2022-12-15T22:51:42.119Z,3.40
2022-12-15T22:54:55.167Z,3.63
2022-12-15T22:57:48.959Z,4.17
2022-12-15T23:00:36.498Z,3.60
2022-12-15T23:07:07.876Z,3.40
2022-12-15T23:09:54.674Z,3.60
2022-12-15T23:12:41.735Z,2.73
2022-12-15T23:15:27.982Z,3.20
2022-12-15T23:18:14.895Z,2.30
2022-12-15T23:21:01.915Z,3.17
2022-12-15T23:23:49.106Z,2.43
2022-12-15T23:26:37.381Z,2.87
2022-12-15T23:29:24.549Z,2.33
2022-12-15T23:32:11.413Z,1.60
2022-12-15T23:34:58.471Z,1.30
2022-12-15T23:37:45.318Z,1.23
2022-12-15T23:40:32.972Z,0.67
2022-12-15T23:43:19.758Z,0.77
2022-12-15T23:46:15.053Z,0.60
2022-12-15T23:49:03.304Z,0.60
2022-12-15T23:51:50.408Z,0.70
2022-12-15T23:54:37.354Z,0.60
2022-12-15T23:57:24.531Z,0.30
